Time;durP1;ratioP1;P1;durP2;ratioP2;P2;SDS_P1;SDS_P2;PMS_P1;PMS_P2;Temp;Humidity;BMP_temperature;BMP_pressure;BME280_temperature;BME280_humidity;BME280_pressure;Samples;Min_cycle;Max_cycle;Signal;HPM_P1;HPM_P2
2022/04/06 00:00:04;;;;;;;5.18;1.92;;;;;;;3.41;100.00;99763.69;4982415;28;20184;-49
2022/04/06 00:02:29;;;;;;;3.88;2.00;;;;;;;3.39;100.00;99764.63;4991437;28;20190;-50
2022/04/06 00:04:55;;;;;;;4.55;2.08;;;;;;;3.39;100.00;99767.25;4991697;28;20192;-48
2022/04/06 00:07:20;;;;;;;3.25;1.90;;;;;;;3.45;100.00;99751.22;4990146;28;20204;-47
2022/04/06 00:09:46;;;;;;;4.82;2.08;;;;;;;3.43;100.00;99748.63;4991285;28;20357;-48
2022/04/06 00:12:11;;;;;;;1.63;1.50;;;;;;;3.30;100.00;99752.50;4991325;28;20166;-48
2022/04/06 00:14:37;;;;;;;5.82;2.13;;;;;;;3.30;100.00;99737.50;4991990;28;20209;-49
2022/04/06 00:17:05;;;;;;;3.13;1.77;;;;;;;3.25;100.00;99742.03;4990870;28;20201;-49
2022/04/06 00:19:35;;;;;;;3.17;1.30;;;;;;;3.01;100.00;99734.72;4990625;28;20183;-45
2022/04/06 00:22:01;;;;;;;2.88;1.27;;;;;;;2.94;100.00;99735.78;4990349;28;20330;-45
2022/04/06 00:24:27;;;;;;;3.67;1.60;;;;;;;3.09;100.00;99727.47;4990368;28;20663;-41
2022/04/06 00:26:53;;;;;;;3.35;1.33;;;;;;;3.00;100.00;99733.00;4989915;28;20604;-44
2022/04/06 00:29:19;;;;;;;5.15;1.63;;;;;;;3.05;100.00;99726.66;4990754;28;20655;-43
2022/04/06 00:31:44;;;;;;;5.25;1.70;;;;;;;3.10;100.00;99726.53;4991302;28;20176;-42
2022/04/06 00:34:09;;;;;;;2.72;1.30;;;;;;;3.08;100.00;99720.41;4989704;28;20169;-44
2022/04/06 00:36:35;;;;;;;4.20;1.48;;;;;;;2.97;100.00;99712.75;4991375;28;20206;-45
2022/04/06 00:39:00;;;;;;;2.50;1.27;;;;;;;2.84;100.00;99706.91;4991287;28;20257;-43
2022/04/06 00:41:25;;;;;;;3.60;1.60;;;;;;;2.81;100.00;99706.97;4990795;28;20276;-44
2022/04/06 00:44:11;;;;;;;3.03;1.80;;;;;;;2.88;100.00;99697.09;4991155;28;20232;-44
2022/04/06 00:46:37;;;;;;;3.00;1.60;;;;;;;2.85;100.00;99694.56;4990723;28;20276;-44
2022/04/06 00:49:03;;;;;;;2.97;1.77;;;;;;;2.93;100.00;99691.69;4991367;28;20572;-44
2022/04/06 00:51:29;;;;;;;4.43;2.05;;;;;;;2.78;100.00;99685.91;4990478;28;20176;-42
2022/04/06 00:53:55;;;;;;;3.72;1.92;;;;;;;2.96;100.00;99694.28;4990880;28;20166;-44
2022/04/06 00:56:21;;;;;;;4.30;2.17;;;;;;;2.86;100.00;99691.88;4990882;28;20270;-44
2022/04/06 00:58:47;;;;;;;5.00;2.30;;;;;;;2.79;100.00;99681.47;4985943;28;20663;-44
2022/04/06 01:01:13;;;;;;;6.95;2.15;;;;;;;2.83;100.00;99684.00;4989378;28;20205;-44
2022/04/06 01:03:40;;;;;;;6.68;2.60;;;;;;;2.84;100.00;99674.28;4989343;28;20174;-43
2022/04/06 01:06:07;;;;;;;4.85;2.30;;;;;;;2.98;100.00;99680.09;4990671;28;20284;-45
2022/04/06 01:08:33;;;;;;;4.55;2.60;;;;;;;3.00;100.00;99675.66;4990376;28;20185;-43
2022/04/06 01:10:59;;;;;;;3.15;2.33;;;;;;;2.95;100.00;99679.31;5005259;28;20193;-43
2022/04/06 01:13:26;;;;;;;4.00;2.55;;;;;;;2.98;100.00;99672.16;4990502;28;20169;-44
2022/04/06 01:15:51;;;;;;;2.90;2.58;;;;;;;2.98;100.00;99669.53;4990423;28;20201;-44
2022/04/06 01:18:16;;;;;;;4.00;2.88;;;;;;;2.97;100.00;99664.25;4990183;28;20170;-45
2022/04/06 01:20:42;;;;;;;3.08;2.65;;;;;;;3.11;100.00;99666.56;4990062;28;20165;-44
2022/04/06 01:23:07;;;;;;;2.88;2.67;;;;;;;3.13;100.00;99659.41;4990490;28;20640;-43
2022/04/06 01:25:38;;;;;;;4.28;3.10;;;;;;;3.06;100.00;99656.06;4990243;28;20547;-45
2022/04/06 01:28:04;;;;;;;3.15;2.83;;;;;;;3.07;100.00;99657.81;4990234;28;20181;-43
2022/04/06 01:30:30;;;;;;;5.82;3.47;;;;;;;3.01;100.00;99660.63;4990184;28;20189;-43
2022/04/06 01:32:57;;;;;;;7.38;3.72;;;;;;;3.02;100.00;99655.31;4990298;28;20279;-43
2022/04/06 01:35:23;;;;;;;3.42;3.13;;;;;;;3.12;100.00;99652.41;4990229;28;20691;-44
2022/04/06 01:37:49;;;;;;;4.00;3.13;;;;;;;3.14;100.00;99653.25;4990112;28;20204;-45
2022/04/06 01:40:15;;;;;;;4.15;3.45;;;;;;;3.03;100.00;99651.75;4989905;28;20212;-43
2022/04/06 01:42:40;;;;;;;4.85;4.07;;;;;;;3.06;100.00;99649.03;4981458;28;20216;-42
2022/04/06 01:45:07;;;;;;;4.40;3.55;;;;;;;3.09;100.00;99633.06;4981963;28;20181;-43
2022/04/06 01:47:32;;;;;;;4.72;3.65;;;;;;;3.13;100.00;99625.03;4988661;28;20181;-43
2022/04/06 01:52:41;;;;;;;4.55;4.13;;;;;;;3.12;100.00;99629.44;4989661;28;20168;-42
2022/04/06 01:55:09;;;;;;;4.18;3.78;;;;;;;3.14;100.00;99627.63;4990627;28;20173;-44
2022/04/06 01:57:35;;;;;;;4.78;3.75;;;;;;;3.09;100.00;99629.53;4990152;28;20260;-42
2022/04/06 02:00:01;;;;;;;5.53;4.20;;;;;;;3.10;100.00;99628.63;4989956;28;20173;-42
2022/04/06 02:02:31;;;;;;;5.03;4.53;;;;;;;3.10;100.00;99612.75;4990259;28;20234;-43
2022/04/06 02:04:58;;;;;;;5.78;4.28;;;;;;;3.15;100.00;99612.63;4989631;28;20184;-44
2022/04/06 02:07:25;;;;;;;4.80;4.20;;;;;;;3.07;100.00;99613.69;4990556;28;20189;-44
2022/04/06 02:09:50;;;;;;;5.05;4.18;;;;;;;3.08;100.00;99596.03;4989507;28;20162;-45
2022/04/06 02:12:16;;;;;;;5.25;4.53;;;;;;;3.10;100.00;99594.22;4989982;28;20166;-44
2022/04/06 02:14:42;;;;;;;5.45;4.57;;;;;;;2.98;100.00;99597.22;4989836;28;20166;-44
2022/04/06 02:17:08;;;;;;;5.40;4.80;;;;;;;3.06;100.00;99597.84;4988494;28;20189;-44
2022/04/06 02:19:36;;;;;;;5.70;5.13;;;;;;;2.99;100.00;99588.34;4989358;28;20185;-42
2022/04/06 02:22:04;;;;;;;7.38;5.63;;;;;;;3.04;100.00;99575.88;4989711;28;20546;-43
2022/04/06 02:24:30;;;;;;;7.53;5.22;;;;;;;3.07;100.00;99576.66;4989550;28;20185;-44
2022/04/06 02:26:55;;;;;;;5.60;5.05;;;;;;;3.20;100.00;99571.88;4989996;28;20324;-42
2022/04/06 02:29:20;;;;;;;5.80;5.30;;;;;;;3.26;100.00;99558.50;4989191;28;20186;-42
2022/04/06 02:31:46;;;;;;;7.10;5.43;;;;;;;3.26;100.00;99553.19;4990656;28;20629;-44
2022/04/06 02:34:11;;;;;;;5.93;5.40;;;;;;;3.12;100.00;99547.41;4989527;28;20178;-44
2022/04/06 02:36:37;;;;;;;5.72;5.07;;;;;;;3.12;100.00;99547.41;4990165;28;20201;-44
2022/04/06 02:39:02;;;;;;;6.57;5.35;;;;;;;3.04;100.00;99537.06;4988792;28;20166;-44
2022/04/06 02:41:29;;;;;;;7.50;6.55;;;;;;;3.03;100.00;99534.44;4989325;28;20696;-42
2022/04/06 02:43:55;;;;;;;7.50;6.63;;;;;;;3.09;100.00;99534.28;4990178;28;20204;-45
2022/04/06 02:46:20;;;;;;;7.28;6.55;;;;;;;3.19;100.00;99538.41;4984675;28;21017;-45
2022/04/06 02:48:46;;;;;;;8.43;6.82;;;;;;;3.21;100.00;99525.97;4992693;28;20226;-44
2022/04/06 02:51:12;;;;;;;7.15;6.45;;;;;;;3.26;100.00;99518.78;4992476;28;20193;-44
2022/04/06 02:53:37;;;;;;;7.20;6.50;;;;;;;3.37;100.00;99520.22;4992887;28;20321;-43
2022/04/06 02:56:02;;;;;;;8.82;7.28;;;;;;;3.33;100.00;99511.53;4993286;28;20214;-45
2022/04/06 02:58:28;;;;;;;10.60;7.75;;;;;;;3.38;100.00;99506.09;4992840;28;20189;-45
2022/04/06 03:00:54;;;;;;;8.40;7.03;;;;;;;3.43;100.00;99501.50;4992639;28;20193;-44
2022/04/06 03:03:20;;;;;;;10.15;7.38;;;;;;;3.45;100.00;99503.19;4992661;28;20591;-45
2022/04/06 03:05:46;;;;;;;8.30;7.40;;;;;;;3.57;100.00;99511.69;4992741;28;20235;-45
2022/04/06 03:08:11;;;;;;;8.88;7.75;;;;;;;3.60;100.00;99504.50;4991531;28;20216;-45
2022/04/06 03:10:37;;;;;;;8.43;7.47;;;;;;;3.64;100.00;99506.16;4992589;28;20252;-45
2022/04/06 03:13:02;;;;;;;9.32;8.32;;;;;;;3.70;100.00;99502.47;4992855;28;20174;-45
2022/04/06 03:15:28;;;;;;;9.38;8.18;;;;;;;3.76;100.00;99499.63;4991574;28;20670;-42
2022/04/06 03:17:53;;;;;;;9.77;8.02;;;;;;;3.85;100.00;99501.13;4992361;28;20183;-44
2022/04/06 03:20:19;;;;;;;10.68;8.77;;;;;;;3.89;100.00;99497.41;4991933;28;20208;-45
2022/04/06 03:22:44;;;;;;;9.70;8.50;;;;;;;3.96;100.00;99500.72;4992844;28;20288;-42
2022/04/06 03:25:10;;;;;;;11.80;9.38;;;;;;;3.96;100.00;99483.06;4992475;28;20185;-44
2022/04/06 03:27:36;;;;;;;12.63;8.70;;;;;;;3.99;100.00;99485.63;4992528;28;20196;-45
2022/04/06 03:30:04;;;;;;;9.68;8.68;;;;;;;4.06;100.00;99476.53;4992366;28;20228;-43
2022/04/06 03:32:29;;;;;;;11.82;9.43;;;;;;;4.06;100.00;99476.53;4992549;28;20231;-45
2022/04/06 03:34:54;;;;;;;10.25;9.02;;;;;;;4.13;100.00;99480.72;4992644;28;20172;-44
2022/04/06 03:37:20;;;;;;;10.68;8.75;;;;;;;4.25;100.00;99471.47;4992159;28;20208;-44
2022/04/06 03:39:46;;;;;;;10.85;9.25;;;;;;;4.37;100.00;99470.19;4990707;28;20639;-44
2022/04/06 03:42:11;;;;;;;11.82;9.98;;;;;;;4.48;100.00;99462.75;4990127;28;20215;-45
2022/04/06 03:44:36;;;;;;;10.88;8.93;;;;;;;4.62;100.00;99464.03;4987893;28;20200;-45
2022/04/06 03:47:02;;;;;;;10.25;8.93;;;;;;;4.69;100.00;99454.94;4991292;28;20239;-45
2022/04/06 03:49:27;;;;;;;10.02;8.45;;;;;;;4.85;100.00;99450.78;4991563;28;20221;-44
2022/04/06 03:51:53;;;;;;;13.05;9.35;;;;;;;4.92;100.00;99449.66;4987855;28;20178;-44
2022/04/06 03:54:19;;;;;;;9.55;8.55;;;;;;;5.03;100.00;99443.06;4990400;28;20578;-44
2022/04/06 03:56:44;;;;;;;11.93;8.95;;;;;;;5.16;100.00;99436.38;4990383;28;20568;-44
2022/04/06 03:59:10;;;;;;;13.95;10.13;;;;;;;5.47;100.00;99443.16;4991519;28;20256;-46
2022/04/06 04:01:36;;;;;;;19.40;12.15;;;;;;;5.57;100.00;99437.41;4991345;28;20285;-43
2022/04/06 04:04:04;;;;;;;21.45;11.57;;;;;;;5.65;100.00;99442.41;4991415;28;20212;-44
2022/04/06 04:06:32;;;;;;;19.80;12.65;;;;;;;5.75;100.00;99434.91;4990097;28;20197;-44
2022/04/06 04:08:58;;;;;;;20.10;13.63;;;;;;;5.74;100.00;99428.72;5006481;28;20533;-43
2022/04/06 04:11:23;;;;;;;23.55;16.38;;;;;;;5.85;100.00;99428.28;4990994;28;20188;-43
2022/04/06 04:13:49;;;;;;;26.85;17.25;;;;;;;5.86;100.00;99429.16;4991735;28;20170;-43
2022/04/06 04:16:14;;;;;;;26.65;17.85;;;;;;;5.95;100.00;99428.81;4990220;28;20201;-45
2022/04/06 04:18:41;;;;;;;29.83;18.33;;;;;;;5.97;100.00;99421.66;4990793;28;20561;-43
2022/04/06 04:23:50;;;;;;;31.25;18.58;;;;;;;6.02;100.00;99424.97;4991355;28;20651;-44
2022/04/06 04:26:15;;;;;;;31.60;18.55;;;;;;;6.02;100.00;99426.78;4991298;28;20205;-44
2022/04/06 04:28:41;;;;;;;26.83;17.20;;;;;;;6.03;100.00;99421.38;4990848;28;20348;-46
2022/04/06 04:31:06;;;;;;;27.65;16.55;;;;;;;6.05;100.00;99426.63;4990350;28;20187;-44
2022/04/06 04:33:32;;;;;;;29.42;16.35;;;;;;;6.09;100.00;99428.22;4990730;28;20181;-46
2022/04/06 04:35:57;;;;;;;30.73;16.25;;;;;;;6.10;100.00;99414.00;4990699;28;20206;-45
2022/04/06 04:38:23;;;;;;;30.17;15.90;;;;;;;6.08;100.00;99421.16;4991039;28;20264;-44
2022/04/06 04:40:48;;;;;;;27.85;16.60;;;;;;;6.19;100.00;99416.28;4990128;28;20284;-43
2022/04/06 04:43:13;;;;;;;27.67;17.10;;;;;;;6.13;100.00;99414.75;4990645;28;20324;-44
2022/04/06 04:45:39;;;;;;;28.45;16.38;;;;;;;6.16;100.00;99417.25;4989880;28;20671;-43
2022/04/06 04:48:04;;;;;;;33.83;16.20;;;;;;;6.16;100.00;99417.25;4988903;28;20538;-43
2022/04/06 04:50:30;;;;;;;31.30;16.33;;;;;;;6.18;100.00;99406.56;4989715;28;20260;-43
2022/04/06 04:52:56;;;;;;;28.83;16.15;;;;;;;6.20;100.00;99404.69;4990457;28;20681;-43
2022/04/06 04:55:21;;;;;;;26.85;16.55;;;;;;;6.23;100.00;99409.00;4989102;28;20268;-43
2022/04/06 04:57:46;;;;;;;26.70;14.82;;;;;;;6.28;100.00;99401.72;4990470;28;20260;-44
2022/04/06 05:00:12;;;;;;;22.67;14.90;;;;;;;6.37;100.00;99399.50;4990220;28;20391;-44
2022/04/06 05:02:38;;;;;;;27.08;15.50;;;;;;;6.31;100.00;99402.44;4990125;28;20658;-46
2022/04/06 05:05:05;;;;;;;31.48;15.07;;;;;;;6.35;100.00;99404.03;4990328;28;20224;-43
2022/04/06 05:07:31;;;;;;;27.38;14.95;;;;;;;6.39;100.00;99402.13;4989704;28;20212;-44
2022/04/06 05:09:56;;;;;;;25.23;14.48;;;;;;;6.44;100.00;99393.94;4990453;28;20637;-44
2022/04/06 05:12:22;;;;;;;23.92;14.77;;;;;;;6.42;100.00;99398.44;4989911;28;20644;-44
2022/04/06 05:14:47;;;;;;;22.13;14.00;;;;;;;6.44;100.00;99391.25;4989447;28;20585;-43
2022/04/06 05:17:12;;;;;;;24.65;15.05;;;;;;;6.46;100.00;99392.06;4989939;28;20184;-44
2022/04/06 05:19:38;;;;;;;20.05;13.30;;;;;;;6.45;100.00;99382.34;4987774;28;20274;-44
2022/04/06 05:22:04;;;;;;;23.02;14.25;;;;;;;6.51;100.00;99388.25;4990028;28;20678;-42
2022/04/06 05:24:29;;;;;;;20.70;13.02;;;;;;;6.50;100.00;99391.00;4989796;28;20231;-45
2022/04/06 05:26:55;;;;;;;21.80;13.02;;;;;;;6.47;100.00;99397.31;4990088;28;20544;-44
2022/04/06 05:29:20;;;;;;;21.67;13.27;;;;;;;6.49;100.00;99375.94;4989908;28;20161;-43
2022/04/06 05:31:46;;;;;;;19.45;12.60;;;;;;;6.60;100.00;99381.66;4990115;28;20172;-43
2022/04/06 05:34:11;;;;;;;24.60;13.00;;;;;;;6.56;100.00;99378.28;4990391;28;20169;-44
2022/04/06 05:36:36;;;;;;;23.25;13.18;;;;;;;6.56;100.00;99372.09;4989572;28;20197;-44
2022/04/06 05:39:02;;;;;;;21.10;13.70;;;;;;;6.58;100.00;99368.44;4990303;28;20217;-45
2022/04/06 05:41:28;;;;;;;19.67;12.35;;;;;;;6.60;100.00;99379.88;4989700;28;20196;-44
2022/04/06 05:43:53;;;;;;;20.20;13.18;;;;;;;6.68;100.00;99378.66;4990105;28;20639;-43
2022/04/06 05:46:19;;;;;;;18.80;12.70;;;;;;;6.66;100.00;99380.53;4990365;28;20683;-43
2022/04/06 05:48:44;;;;;;;20.95;12.98;;;;;;;6.64;100.00;99371.75;4987071;28;20296;-45
2022/04/06 05:51:10;;;;;;;18.35;12.95;;;;;;;6.66;100.00;99370.72;4984328;28;20557;-44
2022/04/06 05:53:35;;;;;;;21.83;12.45;;;;;;;6.71;100.00;99362.53;4993052;28;20238;-42
2022/04/06 05:56:00;;;;;;;17.70;12.45;;;;;;;6.78;100.00;99356.88;4991881;28;20197;-42
2022/04/06 05:58:26;;;;;;;20.35;12.35;;;;;;;6.74;100.00;99363.25;4989388;28;20192;-41
2022/04/06 06:00:51;;;;;;;18.50;12.20;;;;;;;6.72;100.00;99353.63;4989322;28;20197;-44
2022/04/06 06:03:16;;;;;;;20.27;12.10;;;;;;;6.75;100.00;99349.00;4986458;28;20193;-43
2022/04/06 06:05:43;;;;;;;18.73;12.77;;;;;;;6.74;100.00;99352.63;4988142;28;20190;-45
2022/04/06 06:08:09;;;;;;;21.42;12.18;;;;;;;6.80;100.00;99335.50;4989974;28;20189;-44
2022/04/06 06:10:34;;;;;;;23.02;12.43;;;;;;;6.78;100.00;99356.88;4990096;28;20240;-42
2022/04/06 06:13:00;;;;;;;18.83;12.18;;;;;;;6.79;100.00;99339.09;4988618;28;20177;-44
2022/04/06 06:15:26;;;;;;;19.90;12.98;;;;;;;6.85;100.00;99343.28;4990125;28;20527;-44
2022/04/06 06:17:52;;;;;;;20.13;12.70;;;;;;;6.84;100.00;99345.06;4989995;28;20161;-45
2022/04/06 06:20:18;;;;;;;19.90;13.32;;;;;;;6.90;100.00;99349.25;4990119;28;20204;-47
2022/04/06 06:22:44;;;;;;;20.75;12.70;;;;;;;6.88;100.00;99343.13;4993755;28;20205;-48
2022/04/06 06:25:09;;;;;;;20.23;13.57;;;;;;;6.90;100.00;99341.25;4993777;28;20635;-44
2022/04/06 06:27:42;;;;;;;22.30;13.75;;;;;;;6.91;100.00;99332.31;4993611;28;20535;-45
2022/04/06 06:30:10;;;;;;;21.15;13.45;;;;;;;6.92;100.00;99334.91;4992087;28;20200;-43
2022/04/06 06:32:35;;;;;;;24.17;13.27;;;;;;;6.95;100.00;99332.13;4993716;28;20288;-43
2022/04/06 06:35:00;;;;;;;21.63;13.80;;;;;;;6.95;100.00;99345.44;4992429;28;20577;-46
2022/04/06 06:37:26;;;;;;;19.67;12.85;;;;;;;6.92;100.00;99332.25;4993218;28;20650;-42
2022/04/06 06:39:54;;;;;;;20.83;12.25;;;;;;;7.00;100.00;99316.78;4993586;28;20276;-44
2022/04/06 06:42:20;;;;;;;21.25;12.60;;;;;;;7.06;100.00;99322.75;4993047;28;20237;-45
2022/04/06 06:44:45;;;;;;;21.58;12.80;;;;;;;7.06;100.00;99325.41;4992362;28;20547;-46
2022/04/06 06:47:11;;;;;;;18.55;12.80;;;;;;;7.04;100.00;99317.50;4993336;28;20194;-46
2022/04/06 06:49:40;;;;;;;18.63;12.95;;;;;;;7.05;100.00;99323.69;4990000;28;20221;-44
2022/04/06 06:52:06;;;;;;;21.38;13.35;;;;;;;7.01;100.00;99326.47;4996296;28;20296;-45
2022/04/06 06:54:31;;;;;;;20.38;11.98;;;;;;;7.04;100.00;99304.19;4991361;28;20304;-46
2022/04/06 06:56:57;;;;;;;27.15;15.00;;;;;;;7.01;100.00;99329.16;5000016;28;20212;-47
2022/04/06 06:59:22;;;;;;;25.00;15.32;;;;;;;7.00;100.00;99332.75;4983993;28;20247;-45
2022/04/06 07:01:48;;;;;;;23.88;13.73;;;;;;;6.99;100.00;99330.16;4995222;28;20216;-46
2022/04/06 07:04:13;;;;;;;24.17;13.57;;;;;;;6.96;100.00;99327.66;4992680;28;20178;-47
2022/04/06 07:06:39;;;;;;;19.30;13.15;;;;;;;6.95;100.00;99329.47;4993136;28;20233;-45
2022/04/06 07:09:04;;;;;;;22.38;13.50;;;;;;;6.91;100.00;99324.31;4992488;28;20165;-45
2022/04/06 07:11:30;;;;;;;18.13;13.27;;;;;;;6.91;100.00;99325.22;4992623;28;20629;-44
2022/04/06 07:13:55;;;;;;;19.50;12.55;;;;;;;6.92;100.00;99329.59;4991619;28;20538;-43
2022/04/06 07:16:21;;;;;;;19.00;11.82;;;;;;;6.97;100.00;99316.91;5000223;28;20207;-45
2022/04/06 07:18:46;;;;;;;20.73;12.48;;;;;;;6.95;100.00;99333.91;4991389;28;20201;-45
2022/04/06 07:21:12;;;;;;;15.70;11.57;;;;;;;6.90;100.00;99318.16;4988806;28;20694;-43
2022/04/06 07:23:38;;;;;;;19.23;11.32;;;;;;;7.00;100.00;99332.75;4995022;28;20281;-44
2022/04/06 07:26:04;;;;;;;18.08;11.95;;;;;;;7.03;100.00;99320.25;5007733;28;20188;-45
2022/04/06 07:28:29;;;;;;;14.73;11.32;;;;;;;6.98;100.00;99312.47;4991630;28;20173;-44
2022/04/06 07:30:56;;;;;;;15.52;11.35;;;;;;;7.00;100.00;99329.25;5005812;28;20554;-47
2022/04/06 07:33:24;;;;;;;15.02;10.73;;;;;;;6.97;100.00;99321.38;4982540;28;20170;-47
2022/04/06 07:35:51;;;;;;;15.07;10.50;;;;;;;6.99;100.00;99317.69;4973138;28;20618;-47
2022/04/06 07:38:18;;;;;;;13.10;10.00;;;;;;;7.02;100.00;99306.06;4972423;28;20171;-44
2022/04/06 07:40:43;;;;;;;10.07;7.88;;;;;;;7.06;100.00;99315.59;4973758;28;20205;-44
2022/04/06 07:43:10;;;;;;;12.77;8.65;;;;;;;7.07;100.00;99312.03;4992440;28;20676;-44
2022/04/06 07:45:36;;;;;;;13.82;8.50;;;;;;;7.01;100.00;99305.19;4991383;28;20189;-45
2022/04/06 07:48:04;;;;;;;10.13;8.00;;;;;;;7.03;100.00;99304.25;5006887;28;20216;-45
2022/04/06 07:50:30;;;;;;;11.93;7.47;;;;;;;7.04;100.00;99316.63;4993189;28;20194;-46
2022/04/06 07:52:56;;;;;;;9.48;7.30;;;;;;;7.06;100.00;99312.94;4992271;28;20170;-43
2022/04/06 07:55:21;;;;;;;8.95;6.60;;;;;;;7.04;100.00;99317.50;4992245;28;20235;-47
2022/04/06 07:57:47;;;;;;;9.20;7.25;;;;;;;7.08;100.00;99312.88;4991771;28;20257;-45
2022/04/06 08:00:17;;;;;;;11.48;6.97;;;;;;;7.13;100.00;99317.06;4990591;28;20593;-45
2022/04/06 08:02:46;;;;;;;9.05;6.53;;;;;;;7.10;100.00;99324.31;4991838;28;20185;-48
2022/04/06 08:05:12;;;;;;;8.48;6.28;;;;;;;7.11;100.00;99318.94;4990444;28;20195;-47
2022/04/06 08:07:43;;;;;;;9.90;6.10;;;;;;;7.20;100.00;99307.81;4990477;28;20296;-47
2022/04/06 08:10:11;;;;;;;8.93;6.60;;;;;;;7.17;100.00;99304.44;4991555;28;20680;-45
2022/04/06 08:12:37;;;;;;;8.40;6.18;;;;;;;7.20;100.00;99320.28;4990815;28;20174;-43
2022/04/06 08:15:03;;;;;;;6.95;5.78;;;;;;;7.18;100.00;99314.16;4985864;28;20170;-47
2022/04/06 08:17:39;;;;;;;10.05;7.32;;;;;;;7.19;100.00;99315.88;4973307;28;20203;-44
2022/04/06 08:20:06;;;;;;;6.70;5.38;;;;;;;7.23;100.00;99301.47;5002838;28;20196;-44
2022/04/06 08:22:31;;;;;;;6.90;5.45;;;;;;;7.23;100.00;99317.47;5009837;28;20196;-44
2022/04/06 08:24:57;;;;;;;6.53;4.90;;;;;;;7.17;100.00;99309.75;5001123;28;20654;-44
2022/04/06 08:27:22;;;;;;;10.77;5.53;;;;;;;7.18;100.00;99298.19;4997633;28;20205;-47
2022/04/06 08:29:48;;;;;;;6.80;5.95;;;;;;;7.17;100.00;99313.31;5003199;28;20534;-43
2022/04/06 08:32:14;;;;;;;8.15;5.80;;;;;;;7.13;100.00;99316.22;4994745;28;20177;-43
2022/04/06 08:34:40;;;;;;;6.65;5.25;;;;;;;7.13;100.00;99311.72;5007007;28;20175;-45
2022/04/06 08:37:05;;;;;;;6.40;5.80;;;;;;;7.17;100.00;99301.78;4989846;28;20208;-45
2022/04/06 08:39:31;;;;;;;6.15;5.55;;;;;;;7.17;100.00;99302.66;4988771;28;20253;-49
2022/04/06 08:41:57;;;;;;;6.45;5.65;;;;;;;7.20;100.00;99297.16;4990339;28;20228;-44
2022/04/06 08:44:23;;;;;;;6.78;5.75;;;;;;;7.22;100.00;99295.28;4989505;28;20189;-50
2022/04/06 08:46:50;;;;;;;5.82;5.22;;;;;;;7.21;100.00;99308.69;4991222;28;20698;-43
2022/04/06 08:49:16;;;;;;;7.10;5.85;;;;;;;7.22;100.00;99305.94;4987786;28;20170;-44
2022/04/06 08:51:44;;;;;;;7.30;5.32;;;;;;;7.27;100.00;99302.19;4982659;28;20196;-44
2022/04/06 08:54:10;;;;;;;7.50;5.53;;;;;;;7.22;100.00;99316.59;4990855;28;20548;-46
2022/04/06 08:56:36;;;;;;;8.73;5.15;;;;;;;7.29;100.00;99303.84;4991187;28;20197;-46
2022/04/06 08:59:03;;;;;;;7.13;5.00;;;;;;;7.32;100.00;99311.69;4991156;28;20165;-46
2022/04/06 09:01:33;;;;;;;6.60;5.38;;;;;;;7.37;100.00;99283.03;4990129;28;20220;-44
2022/04/06 09:04:00;;;;;;;6.35;5.07;;;;;;;7.44;100.00;99283.56;4991138;28;20188;-47
2022/04/06 09:06:29;;;;;;;8.48;5.13;;;;;;;7.39;100.00;99309.56;4989991;28;20283;-44
2022/04/06 09:08:54;;;;;;;8.10;5.30;;;;;;;7.40;100.00;99288.19;4988985;28;20491;-43
2022/04/06 09:11:20;;;;;;;5.95;4.50;;;;;;;7.47;100.00;99285.22;4990635;28;20184;-46
2022/04/06 09:13:48;;;;;;;6.43;5.20;;;;;;;7.39;100.00;99297.13;4989924;28;20206;-48
2022/04/06 09:16:18;;;;;;;6.82;4.97;;;;;;;7.44;100.00;99296.91;5005750;28;20209;-42
2022/04/06 09:18:45;;;;;;;6.25;4.93;;;;;;;7.46;100.00;99280.84;4990702;28;20221;-43
2022/04/06 09:21:13;;;;;;;6.13;4.45;;;;;;;7.45;100.00;99314.59;4990746;28;20220;-47
2022/04/06 09:23:38;;;;;;;5.03;4.47;;;;;;;7.50;100.00;99298.38;4990808;28;20559;-49
2022/04/06 09:26:09;;;;;;;5.65;4.75;;;;;;;7.49;100.00;99302.00;4990587;28;20205;-43
2022/04/06 09:28:44;;;;;;;6.38;4.60;;;;;;;7.41;100.00;99289.94;4998993;28;20160;-46
2022/04/06 09:31:13;;;;;;;7.18;4.80;;;;;;;7.42;100.00;99296.13;4999244;28;20275;-44
2022/04/06 09:33:41;;;;;;;7.63;5.90;;;;;;;7.43;100.00;99303.16;5009261;28;20165;-43
2022/04/06 09:36:20;;;;;;;6.25;5.30;;;;;;;7.50;100.00;99298.38;5010162;28;20185;-46
2022/04/06 09:38:50;;;;;;;6.80;4.80;;;;;;;7.54;100.00;99291.97;5009766;28;20271;-44
2022/04/06 09:41:16;;;;;;;6.47;5.10;;;;;;;7.57;100.00;99294.50;5010012;28;20228;-45
2022/04/06 09:43:44;;;;;;;6.28;5.07;;;;;;;7.65;100.00;99286.94;5009596;28;20192;-45
2022/04/06 09:49:10;;;;;;;6.60;4.53;;;;;;;7.73;100.00;99287.41;5003158;28;20226;-45
2022/04/06 09:51:40;;;;;;;8.63;4.57;;;;;;;7.65;100.00;99284.28;4990043;28;20165;-45
2022/04/06 09:54:07;;;;;;;5.18;4.70;;;;;;;7.70;100.00;99300.91;4991570;28;20607;-43
2022/04/06 09:56:35;;;;;;;6.25;4.40;;;;;;;7.66;100.00;99301.16;4993321;28;20189;-43
2022/04/06 09:59:02;;;;;;;5.35;4.50;;;;;;;7.66;100.00;99291.34;4992949;28;20173;-44
2022/04/06 10:01:34;;;;;;;7.15;4.40;;;;;;;7.67;100.00;99301.06;4994333;28;20244;-45
2022/04/06 10:04:09;;;;;;;5.30;4.35;;;;;;;7.73;100.00;99291.91;4994167;28;20173;-48
2022/04/06 10:06:38;;;;;;;5.32;4.18;;;;;;;7.82;100.00;99262.94;4994149;28;20205;-43
2022/04/06 10:09:06;;;;;;;5.22;4.50;;;;;;;7.78;100.00;99293.41;4993911;28;20170;-44
2022/04/06 10:11:38;;;;;;;6.93;4.50;;;;;;;7.78;100.00;99288.06;4993944;28;20810;-44
2022/04/06 10:14:05;;;;;;;5.05;4.53;;;;;;;7.80;100.00;99264.81;4993849;28;20220;-45
2022/04/06 10:16:32;;;;;;;5.15;4.65;;;;;;;7.88;100.00;99284.91;4994079;28;20205;-44
2022/04/06 10:18:59;;;;;;;4.90;4.38;;;;;;;7.81;100.00;99287.91;4993610;28;20178;-45
2022/04/06 10:21:38;;;;;;;5.30;4.13;;;;;;;7.89;100.00;99289.28;4993599;28;20209;-46
2022/04/06 10:24:16;;;;;;;4.03;3.63;;;;;;;7.77;100.00;99289.00;4993990;28;20530;-43
2022/04/06 10:26:44;;;;;;;6.25;3.65;;;;;;;7.71;100.00;99283.13;4993444;28;20209;-45
2022/04/06 10:29:10;;;;;;;4.00;3.70;;;;;;;7.68;100.00;99276.13;4993982;28;20268;-44
2022/04/06 10:31:36;;;;;;;4.28;3.65;;;;;;;7.70;100.00;99282.25;4994073;28;20692;-46
2022/04/06 10:34:21;;;;;;;3.88;3.42;;;;;;;7.68;100.00;99273.47;4994404;28;20239;-46
2022/04/06 10:37:15;;;;;;;4.60;3.60;;;;;;;7.74;100.00;99273.16;4993893;28;20185;-44
2022/04/06 10:39:50;;;;;;;4.13;3.58;;;;;;;7.75;100.00;99282.88;4992993;28;20668;-46
2022/04/06 10:42:37;;;;;;;3.78;3.47;;;;;;;7.78;100.00;99277.41;4993763;28;20197;-45
2022/04/06 10:45:06;;;;;;;4.03;3.28;;;;;;;7.81;100.00;99260.38;4993975;28;20189;-44
2022/04/06 10:47:32;;;;;;;3.72;3.40;;;;;;;7.85;100.00;99267.28;4994052;28;20330;-46
2022/04/06 10:50:16;;;;;;;3.95;3.65;;;;;;;8.13;100.00;99269.31;4984941;28;20194;-44
2022/04/06 10:52:44;;;;;;;4.05;3.72;;;;;;;8.25;100.00;99262.50;4973124;28;20181;-48
2022/04/06 10:55:12;;;;;;;20.92;8.10;;;;;;;8.18;100.00;99264.63;4974301;28;20178;-42
2022/04/06 10:57:57;;;;;;;3.40;2.92;;;;;;;8.03;100.00;99268.97;4974493;28;20190;-46
2022/04/06 11:00:24;;;;;;;3.40;3.10;;;;;;;8.04;100.00;99262.69;4974132;28;20189;-45
2022/04/06 11:02:50;;;;;;;3.40;3.10;;;;;;;7.98;100.00;99255.03;4974076;28;20198;-44
2022/04/06 11:05:42;;;;;;;2.90;2.70;;;;;;;7.94;100.00;99268.59;4973538;28;20686;-44
2022/04/06 11:11:30;;;;;;;2.95;2.75;;;;;;;8.05;100.00;99266.22;4974017;28;20151;-44
2022/04/06 11:13:56;;;;;;;3.08;2.88;;;;;;;8.08;100.00;99270.53;4973824;28;20205;-43
2022/04/06 11:16:45;;;;;;;2.85;2.65;;;;;;;8.08;100.00;99267.88;4974069;28;20225;-44
2022/04/06 11:19:12;;;;;;;2.72;2.40;;;;;;;8.07;100.00;99279.47;4972536;28;20182;-47
2022/04/06 11:21:48;;;;;;;3.83;3.13;;;;;;;8.04;100.00;99275.16;4973876;28;20209;-43
2022/04/06 11:24:27;;;;;;;2.75;2.55;;;;;;;8.00;100.00;99276.25;4973870;28;20178;-43
2022/04/06 11:26:53;;;;;;;2.60;2.40;;;;;;;7.99;100.00;99271.88;4973702;28;20196;-45
2022/04/06 11:29:19;;;;;;;2.60;2.47;;;;;;;7.98;100.00;99262.13;4973819;28;20602;-46
2022/04/06 11:31:54;;;;;;;3.30;3.00;;;;;;;7.94;100.00;99264.13;4973573;28;20173;-48
2022/04/06 11:34:37;;;;;;;3.08;2.80;;;;;;;7.94;100.00;99268.59;5010124;28;20180;-46
2022/04/06 11:37:05;;;;;;;2.88;2.67;;;;;;;7.99;100.00;99262.06;5012670;28;20213;-44